sensor_id;sensor_type;location;lat;lon;timestamp;P1;durP1;ratioP1;P2;durP2;ratioP2
53293;SDS011;39181;53.440;5.644;2023-05-24T00:02:18;24.88;;;4.70;;
53293;SDS011;39181;53.440;5.644;2023-05-24T00:04:44;23.23;;;4.10;;
53293;SDS011;39181;53.440;5.644;2023-05-24T00:07:10;27.98;;;3.72;;
53293;SDS011;39181;53.440;5.644;2023-05-24T00:09:35;27.55;;;4.45;;
53293;SDS011;39181;53.440;5.644;2023-05-24T00:12:01;27.92;;;4.85;;
53293;SDS011;39181;53.440;5.644;2023-05-24T00:14:27;29.15;;;4.47;;
53293;SDS011;39181;53.440;5.644;2023-05-24T00:16:53;21.30;;;3.47;;
53293;SDS011;39181;53.440;5.644;2023-05-24T00:19:18;25.25;;;3.50;;
53293;SDS011;39181;53.440;5.644;2023-05-24T00:21:46;27.10;;;4.10;;
53293;SDS011;39181;53.440;5.644;2023-05-24T00:24:12;20.98;;;3.35;;
53293;SDS011;39181;53.440;5.644;2023-05-24T00:26:38;22.48;;;4.15;;
53293;SDS011;39181;53.440;5.644;2023-05-24T00:29:04;30.92;;;5.35;;
53293;SDS011;39181;53.440;5.644;2023-05-24T00:31:30;21.90;;;3.50;;
53293;SDS011;39181;53.440;5.644;2023-05-24T00:33:56;18.73;;;3.38;;
53293;SDS011;39181;53.440;5.644;2023-05-24T00:36:22;26.13;;;4.25;;
53293;SDS011;39181;53.440;5.644;2023-05-24T00:38:47;24.15;;;4.20;;
53293;SDS011;39181;53.440;5.644;2023-05-24T00:41:13;29.48;;;3.33;;
53293;SDS011;39181;53.440;5.644;2023-05-24T00:43:39;21.02;;;3.17;;
53293;SDS011;39181;53.440;5.644;2023-05-24T00:48:52;20.15;;;3.95;;
53293;SDS011;39181;53.440;5.644;2023-05-24T00:51:18;18.17;;;3.83;;
53293;SDS011;39181;53.440;5.644;2023-05-24T00:53:45;26.77;;;3.97;;
53293;SDS011;39181;53.440;5.644;2023-05-24T00:56:14;23.52;;;3.95;;
53293;SDS011;39181;53.440;5.644;2023-05-24T00:58:41;32.53;;;3.63;;
53293;SDS011;39181;53.440;5.644;2023-05-24T01:01:08;21.52;;;3.78;;
53293;SDS011;39181;53.440;5.644;2023-05-24T01:03:33;19.77;;;4.22;;
53293;SDS011;39181;53.440;5.644;2023-05-24T01:06:01;20.23;;;3.85;;
53293;SDS011;39181;53.440;5.644;2023-05-24T01:17:03;23.40;;;3.83;;
53293;SDS011;39181;53.440;5.644;2023-05-24T01:19:42;23.92;;;4.47;;
53293;SDS011;39181;53.440;5.644;2023-05-24T01:27:41;25.95;;;3.33;;
53293;SDS011;39181;53.440;5.644;2023-05-24T01:30:08;18.05;;;3.22;;
53293;SDS011;39181;53.440;5.644;2023-05-24T01:32:34;17.77;;;3.53;;
53293;SDS011;39181;53.440;5.644;2023-05-24T01:35:00;19.80;;;3.03;;
53293;SDS011;39181;53.440;5.644;2023-05-24T01:37:25;25.38;;;4.43;;
53293;SDS011;39181;53.440;5.644;2023-05-24T01:39:51;27.27;;;4.55;;
53293;SDS011;39181;53.440;5.644;2023-05-24T01:42:25;24.98;;;3.63;;
53293;SDS011;39181;53.440;5.644;2023-05-24T01:49:56;23.27;;;3.20;;
53293;SDS011;39181;53.440;5.644;2023-05-24T01:52:27;21.60;;;3.60;;
53293;SDS011;39181;53.440;5.644;2023-05-24T01:54:57;27.40;;;3.78;;
53293;SDS011;39181;53.440;5.644;2023-05-24T01:57:24;23.02;;;4.47;;
53293;SDS011;39181;53.440;5.644;2023-05-24T01:59:51;23.40;;;3.65;;
53293;SDS011;39181;53.440;5.644;2023-05-24T02:02:18;18.70;;;3.45;;
53293;SDS011;39181;53.440;5.644;2023-05-24T02:04:44;20.40;;;3.35;;
53293;SDS011;39181;53.440;5.644;2023-05-24T02:07:10;20.75;;;3.70;;
53293;SDS011;39181;53.440;5.644;2023-05-24T02:09:35;18.55;;;3.00;;
53293;SDS011;39181;53.440;5.644;2023-05-24T02:12:01;16.45;;;2.58;;
53293;SDS011;39181;53.440;5.644;2023-05-24T02:14:27;20.35;;;3.10;;
53293;SDS011;39181;53.440;5.644;2023-05-24T02:16:53;19.88;;;2.97;;
53293;SDS011;39181;53.440;5.644;2023-05-24T02:19:22;17.05;;;3.47;;
53293;SDS011;39181;53.440;5.644;2023-05-24T02:21:51;16.52;;;2.60;;
53293;SDS011;39181;53.440;5.644;2023-05-24T02:24:17;19.95;;;3.53;;
53293;SDS011;39181;53.440;5.644;2023-05-24T02:26:42;22.25;;;3.22;;
53293;SDS011;39181;53.440;5.644;2023-05-24T02:29:08;16.98;;;3.50;;
53293;SDS011;39181;53.440;5.644;2023-05-24T02:31:34;17.80;;;2.90;;
53293;SDS011;39181;53.440;5.644;2023-05-24T02:34:00;20.83;;;3.28;;
53293;SDS011;39181;53.440;5.644;2023-05-24T02:36:25;19.27;;;3.15;;
53293;SDS011;39181;53.440;5.644;2023-05-24T02:38:51;20.52;;;3.40;;
53293;SDS011;39181;53.440;5.644;2023-05-24T02:41:17;14.35;;;3.13;;
53293;SDS011;39181;53.440;5.644;2023-05-24T02:43:43;21.13;;;3.40;;
53293;SDS011;39181;53.440;5.644;2023-05-24T02:46:09;21.20;;;3.80;;
53293;SDS011;39181;53.440;5.644;2023-05-24T02:48:35;22.63;;;3.25;;
53293;SDS011;39181;53.440;5.644;2023-05-24T02:51:00;21.98;;;3.25;;
53293;SDS011;39181;53.440;5.644;2023-05-24T02:53:27;18.45;;;3.45;;
53293;SDS011;39181;53.440;5.644;2023-05-24T02:55:53;20.80;;;3.90;;
53293;SDS011;39181;53.440;5.644;2023-05-24T02:58:19;20.40;;;4.38;;
53293;SDS011;39181;53.440;5.644;2023-05-24T03:00:44;21.08;;;2.67;;
53293;SDS011;39181;53.440;5.644;2023-05-24T03:03:11;19.77;;;3.42;;
53293;SDS011;39181;53.440;5.644;2023-05-24T03:05:36;19.27;;;3.47;;
53293;SDS011;39181;53.440;5.644;2023-05-24T03:08:02;11.45;;;2.35;;
53293;SDS011;39181;53.440;5.644;2023-05-24T03:10:28;20.52;;;3.97;;
53293;SDS011;39181;53.440;5.644;2023-05-24T03:12:53;21.60;;;3.25;;
53293;SDS011;39181;53.440;5.644;2023-05-24T03:15:19;21.48;;;3.22;;
53293;SDS011;39181;53.440;5.644;2023-05-24T03:17:45;20.27;;;2.88;;
53293;SDS011;39181;53.440;5.644;2023-05-24T03:20:10;23.35;;;3.33;;
53293;SDS011;39181;53.440;5.644;2023-05-24T03:22:37;17.90;;;2.90;;
53293;SDS011;39181;53.440;5.644;2023-05-24T03:25:02;22.73;;;3.35;;
53293;SDS011;39181;53.440;5.644;2023-05-24T03:27:28;19.13;;;3.00;;
53293;SDS011;39181;53.440;5.644;2023-05-24T03:29:54;15.80;;;3.17;;
53293;SDS011;39181;53.440;5.644;2023-05-24T03:32:19;13.55;;;2.95;;
53293;SDS011;39181;53.440;5.644;2023-05-24T03:34:45;23.50;;;3.38;;
53293;SDS011;39181;53.440;5.644;2023-05-24T03:37:10;13.63;;;2.80;;
53293;SDS011;39181;53.440;5.644;2023-05-24T03:39:36;16.55;;;2.45;;
53293;SDS011;39181;53.440;5.644;2023-05-24T03:42:02;15.82;;;3.08;;
53293;SDS011;39181;53.440;5.644;2023-05-24T03:44:27;23.30;;;3.42;;
53293;SDS011;39181;53.440;5.644;2023-05-24T03:46:53;21.60;;;2.80;;
53293;SDS011;39181;53.440;5.644;2023-05-24T03:49:18;19.10;;;3.28;;
53293;SDS011;39181;53.440;5.644;2023-05-24T03:51:44;18.58;;;3.17;;
53293;SDS011;39181;53.440;5.644;2023-05-24T03:54:10;20.33;;;3.53;;
53293;SDS011;39181;53.440;5.644;2023-05-24T03:56:35;18.83;;;3.30;;
53293;SDS011;39181;53.440;5.644;2023-05-24T03:59:01;16.98;;;3.33;;
53293;SDS011;39181;53.440;5.644;2023-05-24T04:01:28;19.95;;;2.80;;
53293;SDS011;39181;53.440;5.644;2023-05-24T04:03:55;18.67;;;3.00;;
53293;SDS011;39181;53.440;5.644;2023-05-24T04:06:22;18.58;;;3.33;;
53293;SDS011;39181;53.440;5.644;2023-05-24T04:08:53;22.70;;;3.38;;
53293;SDS011;39181;53.440;5.644;2023-05-24T04:11:23;20.42;;;3.83;;
53293;SDS011;39181;53.440;5.644;2023-05-24T04:13:52;19.73;;;2.83;;
53293;SDS011;39181;53.440;5.644;2023-05-24T04:16:19;17.80;;;2.90;;
53293;SDS011;39181;53.440;5.644;2023-05-24T04:18:48;19.30;;;3.50;;
53293;SDS011;39181;53.440;5.644;2023-05-24T04:21:14;16.30;;;3.25;;
53293;SDS011;39181;53.440;5.644;2023-05-24T04:23:40;20.75;;;3.20;;
53293;SDS011;39181;53.440;5.644;2023-05-24T04:26:06;25.08;;;4.20;;
53293;SDS011;39181;53.440;5.644;2023-05-24T04:28:32;18.67;;;3.08;;
53293;SDS011;39181;53.440;5.644;2023-05-24T04:30:57;21.05;;;3.05;;
53293;SDS011;39181;53.440;5.644;2023-05-24T04:33:23;18.42;;;3.45;;
53293;SDS011;39181;53.440;5.644;2023-05-24T04:35:49;21.88;;;3.42;;
53293;SDS011;39181;53.440;5.644;2023-05-24T04:38:14;20.52;;;3.33;;
53293;SDS011;39181;53.440;5.644;2023-05-24T04:40:40;18.67;;;3.08;;
53293;SDS011;39181;53.440;5.644;2023-05-24T04:43:05;18.17;;;2.83;;
53293;SDS011;39181;53.440;5.644;2023-05-24T04:45:33;22.00;;;3.90;;
53293;SDS011;39181;53.440;5.644;2023-05-24T04:47:58;19.60;;;2.88;;
53293;SDS011;39181;53.440;5.644;2023-05-24T04:50:24;17.27;;;3.78;;
53293;SDS011;39181;53.440;5.644;2023-05-24T04:52:49;19.75;;;3.83;;
53293;SDS011;39181;53.440;5.644;2023-05-24T04:55:15;17.48;;;3.92;;
53293;SDS011;39181;53.440;5.644;2023-05-24T04:57:41;18.27;;;2.65;;
53293;SDS011;39181;53.440;5.644;2023-05-24T05:00:06;19.48;;;3.10;;
53293;SDS011;39181;53.440;5.644;2023-05-24T05:02:33;22.75;;;3.63;;
53293;SDS011;39181;53.440;5.644;2023-05-24T05:04:59;17.13;;;3.20;;
53293;SDS011;39181;53.440;5.644;2023-05-24T05:07:24;18.25;;;2.88;;
53293;SDS011;39181;53.440;5.644;2023-05-24T05:09:50;15.15;;;2.75;;
53293;SDS011;39181;53.440;5.644;2023-05-24T05:12:16;17.65;;;3.65;;
53293;SDS011;39181;53.440;5.644;2023-05-24T05:14:41;17.58;;;2.88;;
53293;SDS011;39181;53.440;5.644;2023-05-24T05:17:07;24.52;;;3.60;;
53293;SDS011;39181;53.440;5.644;2023-05-24T05:19:32;21.35;;;3.80;;
53293;SDS011;39181;53.440;5.644;2023-05-24T05:21:58;14.10;;;3.15;;
53293;SDS011;39181;53.440;5.644;2023-05-24T05:24:24;16.08;;;3.47;;
53293;SDS011;39181;53.440;5.644;2023-05-24T05:26:49;16.67;;;3.13;;
53293;SDS011;39181;53.440;5.644;2023-05-24T05:29:15;16.17;;;3.85;;
53293;SDS011;39181;53.440;5.644;2023-05-24T05:31:40;15.02;;;3.08;;
53293;SDS011;39181;53.440;5.644;2023-05-24T05:34:06;19.00;;;2.80;;
53293;SDS011;39181;53.440;5.644;2023-05-24T05:36:35;16.70;;;2.63;;
53293;SDS011;39181;53.440;5.644;2023-05-24T05:39:05;22.13;;;3.42;;
53293;SDS011;39181;53.440;5.644;2023-05-24T05:41:33;15.07;;;3.17;;
53293;SDS011;39181;53.440;5.644;2023-05-24T05:44:10;13.40;;;2.97;;
53293;SDS011;39181;53.440;5.644;2023-05-24T05:46:36;18.15;;;3.13;;
53293;SDS011;39181;53.440;5.644;2023-05-24T05:49:02;17.48;;;2.65;;
53293;SDS011;39181;53.440;5.644;2023-05-24T05:51:28;12.13;;;2.72;;
53293;SDS011;39181;53.440;5.644;2023-05-24T05:53:53;16.02;;;2.83;;
53293;SDS011;39181;53.440;5.644;2023-05-24T05:56:19;13.13;;;2.47;;
53293;SDS011;39181;53.440;5.644;2023-05-24T05:58:44;16.02;;;3.55;;
53293;SDS011;39181;53.440;5.644;2023-05-24T06:01:10;16.38;;;3.15;;
53293;SDS011;39181;53.440;5.644;2023-05-24T06:03:36;16.48;;;3.15;;
53293;SDS011;39181;53.440;5.644;2023-05-24T06:06:01;16.17;;;3.45;;
53293;SDS011;39181;53.440;5.644;2023-05-24T06:08:27;14.20;;;3.25;;
53293;SDS011;39181;53.440;5.644;2023-05-24T06:10:54;15.32;;;2.70;;
53293;SDS011;39181;53.440;5.644;2023-05-24T06:13:20;16.92;;;2.97;;
53293;SDS011;39181;53.440;5.644;2023-05-24T06:15:46;13.30;;;2.70;;
53293;SDS011;39181;53.440;5.644;2023-05-24T06:18:11;16.05;;;2.53;;
53293;SDS011;39181;53.440;5.644;2023-05-24T06:20:37;17.33;;;3.20;;
53293;SDS011;39181;53.440;5.644;2023-05-24T06:23:03;13.57;;;2.70;;
53293;SDS011;39181;53.440;5.644;2023-05-24T06:25:29;12.23;;;3.45;;
53293;SDS011;39181;53.440;5.644;2023-05-24T06:27:56;12.80;;;2.60;;
53293;SDS011;39181;53.440;5.644;2023-05-24T06:30:22;16.15;;;3.25;;
53293;SDS011;39181;53.440;5.644;2023-05-24T06:32:47;17.77;;;3.25;;
53293;SDS011;39181;53.440;5.644;2023-05-24T06:35:13;15.13;;;3.38;;
53293;SDS011;39181;53.440;5.644;2023-05-24T06:37:38;13.50;;;2.85;;
53293;SDS011;39181;53.440;5.644;2023-05-24T06:40:05;9.63;;;2.90;;
53293;SDS011;39181;53.440;5.644;2023-05-24T06:42:32;9.00;;;2.45;;
53293;SDS011;39181;53.440;5.644;2023-05-24T06:44:58;12.90;;;2.88;;
53293;SDS011;39181;53.440;5.644;2023-05-24T06:47:24;16.35;;;2.70;;
53293;SDS011;39181;53.440;5.644;2023-05-24T06:49:50;11.60;;;2.65;;
53293;SDS011;39181;53.440;5.644;2023-05-24T06:52:15;11.35;;;2.50;;
53293;SDS011;39181;53.440;5.644;2023-05-24T06:54:41;14.35;;;2.47;;
53293;SDS011;39181;53.440;5.644;2023-05-24T06:57:06;12.32;;;2.88;;
53293;SDS011;39181;53.440;5.644;2023-05-24T06:59:32;17.20;;;3.13;;
53293;SDS011;39181;53.440;5.644;2023-05-24T07:01:59;9.63;;;2.40;;
53293;SDS011;39181;53.440;5.644;2023-05-24T07:04:25;11.82;;;3.47;;
53293;SDS011;39181;53.440;5.644;2023-05-24T07:06:52;12.75;;;2.58;;
53293;SDS011;39181;53.440;5.644;2023-05-24T07:09:18;9.70;;;2.40;;
53293;SDS011;39181;53.440;5.644;2023-05-24T07:11:44;10.35;;;2.30;;
53293;SDS011;39181;53.440;5.644;2023-05-24T07:14:09;12.23;;;2.60;;
53293;SDS011;39181;53.440;5.644;2023-05-24T07:16:35;16.08;;;3.03;;
53293;SDS011;39181;53.440;5.644;2023-05-24T07:19:01;13.18;;;2.58;;
53293;SDS011;39181;53.440;5.644;2023-05-24T07:21:26;17.10;;;2.80;;
53293;SDS011;39181;53.440;5.644;2023-05-24T07:23:52;13.45;;;3.20;;
53293;SDS011;39181;53.440;5.644;2023-05-24T07:26:18;9.55;;;2.67;;
53293;SDS011;39181;53.440;5.644;2023-05-24T07:28:43;11.35;;;2.83;;
53293;SDS011;39181;53.440;5.644;2023-05-24T07:31:09;16.02;;;2.70;;
53293;SDS011;39181;53.440;5.644;2023-05-24T07:33:35;13.02;;;2.58;;
53293;SDS011;39181;53.440;5.644;2023-05-24T07:36:04;13.35;;;2.55;;
53293;SDS011;39181;53.440;5.644;2023-05-24T07:38:30;9.73;;;2.85;;
53293;SDS011;39181;53.440;5.644;2023-05-24T07:40:59;14.23;;;2.70;;
53293;SDS011;39181;53.440;5.644;2023-05-24T07:43:27;9.82;;;2.55;;
53293;SDS011;39181;53.440;5.644;2023-05-24T07:45:53;10.82;;;2.70;;
53293;SDS011;39181;53.440;5.644;2023-05-24T07:48:19;12.05;;;2.92;;
53293;SDS011;39181;53.440;5.644;2023-05-24T07:50:45;13.73;;;3.28;;
53293;SDS011;39181;53.440;5.644;2023-05-24T07:53:13;9.85;;;2.35;;
53293;SDS011;39181;53.440;5.644;2023-05-24T07:55:39;12.40;;;2.38;;
53293;SDS011;39181;53.440;5.644;2023-05-24T07:58:05;13.45;;;2.53;;
53293;SDS011;39181;53.440;5.644;2023-05-24T08:00:30;12.10;;;2.97;;
53293;SDS011;39181;53.440;5.644;2023-05-24T08:02:57;10.57;;;2.75;;
53293;SDS011;39181;53.440;5.644;2023-05-24T08:05:23;13.27;;;2.55;;
53293;SDS011;39181;53.440;5.644;2023-05-24T08:07:49;14.48;;;2.85;;
53293;SDS011;39181;53.440;5.644;2023-05-24T08:10:16;14.05;;;2.83;;
53293;SDS011;39181;53.440;5.644;2023-05-24T08:12:42;12.82;;;3.38;;
53293;SDS011;39181;53.440;5.644;2023-05-24T08:15:08;15.73;;;2.80;;
53293;SDS011;39181;53.440;5.644;2023-05-24T08:17:34;12.52;;;1.98;;
53293;SDS011;39181;53.440;5.644;2023-05-24T08:20:01;13.13;;;2.60;;
53293;SDS011;39181;53.440;5.644;2023-05-24T08:22:30;17.27;;;2.80;;
53293;SDS011;39181;53.440;5.644;2023-05-24T08:24:56;13.05;;;2.95;;
53293;SDS011;39181;53.440;5.644;2023-05-24T08:27:22;11.60;;;2.17;;
53293;SDS011;39181;53.440;5.644;2023-05-24T08:29:47;16.48;;;2.92;;
53293;SDS011;39181;53.440;5.644;2023-05-24T08:32:13;16.02;;;2.45;;
53293;SDS011;39181;53.440;5.644;2023-05-24T08:34:39;15.43;;;2.97;;
53293;SDS011;39181;53.440;5.644;2023-05-24T08:37:05;15.25;;;2.60;;
53293;SDS011;39181;53.440;5.644;2023-05-24T08:39:31;12.77;;;2.65;;
53293;SDS011;39181;53.440;5.644;2023-05-24T08:41:57;14.68;;;3.10;;
53293;SDS011;39181;53.440;5.644;2023-05-24T08:44:24;11.15;;;2.20;;
53293;SDS011;39181;53.440;5.644;2023-05-24T08:46:51;15.88;;;3.13;;
53293;SDS011;39181;53.440;5.644;2023-05-24T08:49:18;12.27;;;2.53;;
53293;SDS011;39181;53.440;5.644;2023-05-24T08:51:43;13.32;;;2.90;;
53293;SDS011;39181;53.440;5.644;2023-05-24T08:54:10;12.15;;;2.50;;
53293;SDS011;39181;53.440;5.644;2023-05-24T08:56:39;9.75;;;2.67;;
53293;SDS011;39181;53.440;5.644;2023-05-24T08:59:06;15.60;;;2.42;;
53293;SDS011;39181;53.440;5.644;2023-05-24T09:01:32;17.05;;;2.83;;
53293;SDS011;39181;53.440;5.644;2023-05-24T09:04:00;14.20;;;2.67;;
53293;SDS011;39181;53.440;5.644;2023-05-24T09:06:27;12.75;;;2.58;;
53293;SDS011;39181;53.440;5.644;2023-05-24T09:08:53;13.40;;;2.92;;
53293;SDS011;39181;53.440;5.644;2023-05-24T09:11:19;13.07;;;2.33;;
53293;SDS011;39181;53.440;5.644;2023-05-24T09:13:46;8.77;;;2.50;;
53293;SDS011;39181;53.440;5.644;2023-05-24T09:16:13;13.60;;;3.25;;
53293;SDS011;39181;53.440;5.644;2023-05-24T09:18:40;12.57;;;2.47;;
53293;SDS011;39181;53.440;5.644;2023-05-24T09:21:11;11.60;;;2.47;;
53293;SDS011;39181;53.440;5.644;2023-05-24T09:23:38;11.50;;;2.70;;
53293;SDS011;39181;53.440;5.644;2023-05-24T09:26:05;12.30;;;2.60;;
53293;SDS011;39181;53.440;5.644;2023-05-24T09:28:32;10.23;;;2.90;;
53293;SDS011;39181;53.440;5.644;2023-05-24T09:30:58;9.73;;;2.50;;
53293;SDS011;39181;53.440;5.644;2023-05-24T09:33:31;11.70;;;2.20;;
53293;SDS011;39181;53.440;5.644;2023-05-24T09:36:02;14.23;;;3.25;;
53293;SDS011;39181;53.440;5.644;2023-05-24T09:38:29;14.98;;;2.60;;
53293;SDS011;39181;53.440;5.644;2023-05-24T09:41:01;9.82;;;2.88;;
53293;SDS011;39181;53.440;5.644;2023-05-24T09:43:31;12.50;;;3.00;;
53293;SDS011;39181;53.440;5.644;2023-05-24T09:46:03;14.80;;;3.22;;
53293;SDS011;39181;53.440;5.644;2023-05-24T09:48:29;13.27;;;2.80;;
53293;SDS011;39181;53.440;5.644;2023-05-24T09:51:01;12.18;;;3.22;;
53293;SDS011;39181;53.440;5.644;2023-05-24T09:53:31;11.43;;;2.90;;
53293;SDS011;39181;53.440;5.644;2023-05-24T09:55:59;12.30;;;2.20;;
53293;SDS011;39181;53.440;5.644;2023-05-24T09:58:31;12.45;;;2.55;;
53293;SDS011;39181;53.440;5.644;2023-05-24T10:01:07;13.13;;;2.67;;
53293;SDS011;39181;53.440;5.644;2023-05-24T10:03:38;11.18;;;2.20;;
53293;SDS011;39181;53.440;5.644;2023-05-24T10:06:16;9.45;;;2.60;;
53293;SDS011;39181;53.440;5.644;2023-05-24T10:08:42;12.65;;;2.47;;
53293;SDS011;39181;53.440;5.644;2023-05-24T10:11:08;9.13;;;2.35;;
53293;SDS011;39181;53.440;5.644;2023-05-24T10:13:34;8.95;;;2.20;;
53293;SDS011;39181;53.440;5.644;2023-05-24T10:16:01;11.80;;;2.72;;
53293;SDS011;39181;53.440;5.644;2023-05-24T10:18:27;10.88;;;2.83;;
53293;SDS011;39181;53.440;5.644;2023-05-24T10:20:54;9.35;;;2.78;;
53293;SDS011;39181;53.440;5.644;2023-05-24T10:23:22;12.98;;;2.50;;
53293;SDS011;39181;53.440;5.644;2023-05-24T10:25:53;15.20;;;2.97;;
53293;SDS011;39181;53.440;5.644;2023-05-24T10:28:25;10.05;;;2.63;;
53293;SDS011;39181;53.440;5.644;2023-05-24T10:30:59;8.52;;;2.47;;
53293;SDS011;39181;53.440;5.644;2023-05-24T10:33:29;11.32;;;2.50;;
53293;SDS011;39181;53.440;5.644;2023-05-24T10:35:59;17.70;;;2.97;;
53293;SDS011;39181;53.440;5.644;2023-05-24T10:38:26;8.88;;;2.65;;
53293;SDS011;39181;53.440;5.644;2023-05-24T10:40:53;12.05;;;2.38;;
53293;SDS011;39181;53.440;5.644;2023-05-24T10:43:19;12.57;;;2.83;;
53293;SDS011;39181;53.440;5.644;2023-05-24T10:45:49;9.82;;;2.67;;
53293;SDS011;39181;53.440;5.644;2023-05-24T10:50:41;8.50;;;2.10;;
53293;SDS011;39181;53.440;5.644;2023-05-24T10:53:14;17.52;;;2.90;;
53293;SDS011;39181;53.440;5.644;2023-05-24T10:58:27;11.23;;;2.50;;
53293;SDS011;39181;53.440;5.644;2023-05-24T11:01:13;12.57;;;2.85;;
53293;SDS011;39181;53.440;5.644;2023-05-24T11:09:19;17.02;;;3.38;;
53293;SDS011;39181;53.440;5.644;2023-05-24T11:11:46;9.43;;;2.53;;
53293;SDS011;39181;53.440;5.644;2023-05-24T11:14:13;8.43;;;2.38;;
53293;SDS011;39181;53.440;5.644;2023-05-24T11:16:43;10.02;;;2.72;;
53293;SDS011;39181;53.440;5.644;2023-05-24T11:19:14;10.07;;;2.22;;
53293;SDS011;39181;53.440;5.644;2023-05-24T11:21:42;11.43;;;2.60;;
53293;SDS011;39181;53.440;5.644;2023-05-24T11:24:09;12.95;;;2.80;;
53293;SDS011;39181;53.440;5.644;2023-05-24T11:26:35;9.35;;;2.63;;
53293;SDS011;39181;53.440;5.644;2023-05-24T11:29:01;10.13;;;2.63;;
53293;SDS011;39181;53.440;5.644;2023-05-24T11:31:28;10.55;;;2.85;;
53293;SDS011;39181;53.440;5.644;2023-05-24T11:33:53;11.63;;;2.83;;
53293;SDS011;39181;53.440;5.644;2023-05-24T11:36:19;10.63;;;2.97;;
53293;SDS011;39181;53.440;5.644;2023-05-24T11:38:45;14.10;;;3.10;;
53293;SDS011;39181;53.440;5.644;2023-05-24T11:41:12;10.00;;;2.60;;
53293;SDS011;39181;53.440;5.644;2023-05-24T11:43:38;15.05;;;3.08;;
53293;SDS011;39181;53.440;5.644;2023-05-24T11:46:05;13.13;;;2.72;;
53293;SDS011;39181;53.440;5.644;2023-05-24T11:48:31;11.80;;;2.72;;
53293;SDS011;39181;53.440;5.644;2023-05-24T11:50:56;8.30;;;2.42;;
53293;SDS011;39181;53.440;5.644;2023-05-24T11:53:23;10.30;;;2.17;;
53293;SDS011;39181;53.440;5.644;2023-05-24T11:55:50;9.55;;;2.25;;
53293;SDS011;39181;53.440;5.644;2023-05-24T11:58:21;9.32;;;2.30;;
53293;SDS011;39181;53.440;5.644;2023-05-24T12:00:48;9.93;;;2.38;;
53293;SDS011;39181;53.440;5.644;2023-05-24T12:03:14;10.73;;;2.90;;
53293;SDS011;39181;53.440;5.644;2023-05-24T12:05:41;13.70;;;2.30;;
53293;SDS011;39181;53.440;5.644;2023-05-24T12:08:07;11.75;;;2.97;;
53293;SDS011;39181;53.440;5.644;2023-05-24T12:10:36;12.82;;;2.55;;
53293;SDS011;39181;53.440;5.644;2023-05-24T12:13:04;8.45;;;2.40;;
53293;SDS011;39181;53.440;5.644;2023-05-24T12:15:33;8.05;;;2.00;;
53293;SDS011;39181;53.440;5.644;2023-05-24T12:17:59;10.48;;;2.03;;
53293;SDS011;39181;53.440;5.644;2023-05-24T12:20:28;10.48;;;2.90;;
53293;SDS011;39181;53.440;5.644;2023-05-24T12:22:54;15.23;;;3.03;;
53293;SDS011;39181;53.440;5.644;2023-05-24T12:25:20;9.18;;;2.10;;
53293;SDS011;39181;53.440;5.644;2023-05-24T12:27:53;11.00;;;2.53;;
53293;SDS011;39181;53.440;5.644;2023-05-24T12:30:23;12.35;;;2.47;;
53293;SDS011;39181;53.440;5.644;2023-05-24T12:32:50;7.25;;;2.13;;
53293;SDS011;39181;53.440;5.644;2023-05-24T12:35:18;13.75;;;2.70;;
53293;SDS011;39181;53.440;5.644;2023-05-24T12:37:45;10.85;;;2.70;;
53293;SDS011;39181;53.440;5.644;2023-05-24T12:40:18;10.88;;;2.50;;
53293;SDS011;39181;53.440;5.644;2023-05-24T12:43:06;12.50;;;2.88;;
53293;SDS011;39181;53.440;5.644;2023-05-24T12:45:31;9.95;;;2.45;;
53293;SDS011;39181;53.440;5.644;2023-05-24T12:47:57;11.68;;;2.53;;
53293;SDS011;39181;53.440;5.644;2023-05-24T12:50:24;14.05;;;3.00;;
53293;SDS011;39181;53.440;5.644;2023-05-24T12:52:50;11.52;;;2.38;;
53293;SDS011;39181;53.440;5.644;2023-05-24T12:55:22;14.88;;;3.35;;
53293;SDS011;39181;53.440;5.644;2023-05-24T12:57:50;9.88;;;3.25;;
53293;SDS011;39181;53.440;5.644;2023-05-24T13:00:20;11.07;;;2.50;;
53293;SDS011;39181;53.440;5.644;2023-05-24T13:02:47;12.73;;;2.58;;
53293;SDS011;39181;53.440;5.644;2023-05-24T13:05:13;9.70;;;2.38;;
53293;SDS011;39181;53.440;5.644;2023-05-24T13:07:41;10.00;;;2.75;;
53293;SDS011;39181;53.440;5.644;2023-05-24T13:10:08;9.98;;;2.92;;
53293;SDS011;39181;53.440;5.644;2023-05-24T13:12:35;14.25;;;3.17;;
53293;SDS011;39181;53.440;5.644;2023-05-24T13:15:01;9.82;;;2.50;;
53293;SDS011;39181;53.440;5.644;2023-05-24T13:17:26;9.35;;;2.35;;
53293;SDS011;39181;53.440;5.644;2023-05-24T13:19:52;11.88;;;2.63;;
53293;SDS011;39181;53.440;5.644;2023-05-24T13:22:19;11.93;;;2.30;;
53293;SDS011;39181;53.440;5.644;2023-05-24T13:24:44;9.82;;;1.95;;
53293;SDS011;39181;53.440;5.644;2023-05-24T13:27:10;12.07;;;2.35;;
53293;SDS011;39181;53.440;5.644;2023-05-24T13:29:36;11.20;;;2.95;;
53293;SDS011;39181;53.440;5.644;2023-05-24T13:32:02;11.38;;;2.47;;
53293;SDS011;39181;53.440;5.644;2023-05-24T13:34:28;8.52;;;2.10;;
53293;SDS011;39181;53.440;5.644;2023-05-24T13:36:53;10.73;;;2.05;;
53293;SDS011;39181;53.440;5.644;2023-05-24T13:39:20;12.45;;;2.58;;
53293;SDS011;39181;53.440;5.644;2023-05-24T13:41:46;10.82;;;2.30;;
53293;SDS011;39181;53.440;5.644;2023-05-24T13:44:12;14.93;;;2.42;;
53293;SDS011;39181;53.440;5.644;2023-05-24T13:46:38;18.70;;;3.50;;
53293;SDS011;39181;53.440;5.644;2023-05-24T13:49:05;9.75;;;2.38;;
53293;SDS011;39181;53.440;5.644;2023-05-24T13:51:31;10.52;;;2.28;;
53293;SDS011;39181;53.440;5.644;2023-05-24T13:53:57;11.60;;;2.60;;
53293;SDS011;39181;53.440;5.644;2023-05-24T13:56:23;16.95;;;2.50;;
53293;SDS011;39181;53.440;5.644;2023-05-24T13:58:49;13.35;;;2.55;;
53293;SDS011;39181;53.440;5.644;2023-05-24T14:01:16;9.48;;;2.20;;
53293;SDS011;39181;53.440;5.644;2023-05-24T14:03:41;12.35;;;2.80;;
53293;SDS011;39181;53.440;5.644;2023-05-24T14:06:07;14.82;;;2.85;;
53293;SDS011;39181;53.440;5.644;2023-05-24T14:08:33;12.90;;;2.50;;
53293;SDS011;39181;53.440;5.644;2023-05-24T14:10:59;13.93;;;3.10;;
53293;SDS011;39181;53.440;5.644;2023-05-24T14:13:25;14.75;;;2.58;;
53293;SDS011;39181;53.440;5.644;2023-05-24T14:15:51;11.57;;;3.03;;
53293;SDS011;39181;53.440;5.644;2023-05-24T14:18:16;13.50;;;2.75;;
53293;SDS011;39181;53.440;5.644;2023-05-24T14:20:42;9.23;;;2.25;;
53293;SDS011;39181;53.440;5.644;2023-05-24T14:23:07;9.77;;;2.15;;
53293;SDS011;39181;53.440;5.644;2023-05-24T14:25:33;9.02;;;2.13;;
53293;SDS011;39181;53.440;5.644;2023-05-24T14:27:59;19.25;;;2.60;;
53293;SDS011;39181;53.440;5.644;2023-05-24T14:30:25;12.32;;;2.35;;
53293;SDS011;39181;53.440;5.644;2023-05-24T14:32:51;10.95;;;2.15;;
53293;SDS011;39181;53.440;5.644;2023-05-24T14:35:16;13.73;;;2.90;;
53293;SDS011;39181;53.440;5.644;2023-05-24T14:37:42;13.52;;;2.38;;
53293;SDS011;39181;53.440;5.644;2023-05-24T14:40:08;13.32;;;2.30;;
53293;SDS011;39181;53.440;5.644;2023-05-24T14:42:34;7.40;;;1.92;;
53293;SDS011;39181;53.440;5.644;2023-05-24T14:45:00;12.45;;;2.53;;
53293;SDS011;39181;53.440;5.644;2023-05-24T14:47:26;11.45;;;2.40;;
53293;SDS011;39181;53.440;5.644;2023-05-24T14:49:52;13.50;;;2.60;;
53293;SDS011;39181;53.440;5.644;2023-05-24T14:52:18;15.02;;;2.63;;
53293;SDS011;39181;53.440;5.644;2023-05-24T14:54:44;13.40;;;2.95;;
53293;SDS011;39181;53.440;5.644;2023-05-24T14:57:09;16.17;;;3.05;;
53293;SDS011;39181;53.440;5.644;2023-05-24T14:59:36;15.85;;;2.92;;
53293;SDS011;39181;53.440;5.644;2023-05-24T15:02:01;16.73;;;3.53;;
53293;SDS011;39181;53.440;5.644;2023-05-24T15:04:27;14.70;;;2.08;;
53293;SDS011;39181;53.440;5.644;2023-05-24T15:06:52;9.20;;;1.85;;